sensor_id;sensor_type;location;lat;lon;timestamp;temperature;humidity
19966;DHT22;10144;50.874;4.762;2024-02-23T00:01:56;5.40;99.90
19966;DHT22;10144;50.874;4.762;2024-02-23T00:04:22;5.30;99.90
19966;DHT22;10144;50.874;4.762;2024-02-23T00:06:49;5.30;99.90
19966;DHT22;10144;50.874;4.762;2024-02-23T00:09:15;5.30;99.90
19966;DHT22;10144;50.874;4.762;2024-02-23T00:11:46;5.30;99.90
19966;DHT22;10144;50.874;4.762;2024-02-23T00:14:15;5.20;99.90
19966;DHT22;10144;50.874;4.762;2024-02-23T00:16:47;5.40;99.90
19966;DHT22;10144;50.874;4.762;2024-02-23T00:19:15;5.40;99.90
19966;DHT22;10144;50.874;4.762;2024-02-23T00:21:43;5.40;99.90
19966;DHT22;10144;50.874;4.762;2024-02-23T00:24:25;5.30;99.90
19966;DHT22;10144;50.874;4.762;2024-02-23T00:26:54;5.20;99.90
19966;DHT22;10144;50.874;4.762;2024-02-23T00:29:47;5.00;99.90
19966;DHT22;10144;50.874;4.762;2024-02-23T00:32:16;4.90;99.90
19966;DHT22;10144;50.874;4.762;2024-02-23T00:34:53;5.00;99.90
19966;DHT22;10144;50.874;4.762;2024-02-23T00:37:18;5.10;99.90
19966;DHT22;10144;50.874;4.762;2024-02-23T00:39:47;5.20;99.90
19966;DHT22;10144;50.874;4.762;2024-02-23T00:42:19;5.10;99.90
19966;DHT22;10144;50.874;4.762;2024-02-23T00:44:49;5.10;99.90
19966;DHT22;10144;50.874;4.762;2024-02-23T00:47:20;5.10;99.90
19966;DHT22;10144;50.874;4.762;2024-02-23T00:49:46;5.00;99.90
19966;DHT22;10144;50.874;4.762;2024-02-23T00:52:26;5.00;99.90
19966;DHT22;10144;50.874;4.762;2024-02-23T00:54:52;4.90;99.90
19966;DHT22;10144;50.874;4.762;2024-02-23T00:57:17;5.00;99.90
19966;DHT22;10144;50.874;4.762;2024-02-23T00:59:47;5.00;99.90
19966;DHT22;10144;50.874;4.762;2024-02-23T01:02:13;5.10;99.90
19966;DHT22;10144;50.874;4.762;2024-02-23T01:04:39;5.10;99.90
19966;DHT22;10144;50.874;4.762;2024-02-23T01:07:08;5.10;99.90
19966;DHT22;10144;50.874;4.762;2024-02-23T01:09:36;5.10;99.90
19966;DHT22;10144;50.874;4.762;2024-02-23T01:12:05;5.20;99.90
19966;DHT22;10144;50.874;4.762;2024-02-23T01:14:32;5.30;99.90
19966;DHT22;10144;50.874;4.762;2024-02-23T01:16:58;5.30;99.90
19966;DHT22;10144;50.874;4.762;2024-02-23T01:19:26;5.20;99.90
19966;DHT22;10144;50.874;4.762;2024-02-23T01:21:52;5.20;99.90
19966;DHT22;10144;50.874;4.762;2024-02-23T01:24:28;5.20;99.90
19966;DHT22;10144;50.874;4.762;2024-02-23T01:26:58;5.10;99.90
19966;DHT22;10144;50.874;4.762;2024-02-23T01:29:27;5.00;99.90
19966;DHT22;10144;50.874;4.762;2024-02-23T01:31:54;4.90;99.90
19966;DHT22;10144;50.874;4.762;2024-02-23T01:34:23;4.80;99.90
19966;DHT22;10144;50.874;4.762;2024-02-23T01:36:49;4.80;99.90
19966;DHT22;10144;50.874;4.762;2024-02-23T01:39:27;4.70;99.90
19966;DHT22;10144;50.874;4.762;2024-02-23T01:41:56;4.70;99.90
19966;DHT22;10144;50.874;4.762;2024-02-23T01:44:25;4.70;99.90
19966;DHT22;10144;50.874;4.762;2024-02-23T01:46:54;4.60;99.90
19966;DHT22;10144;50.874;4.762;2024-02-23T01:49:20;4.60;99.90
19966;DHT22;10144;50.874;4.762;2024-02-23T01:51:49;4.70;99.90
19966;DHT22;10144;50.874;4.762;2024-02-23T01:54:18;4.70;99.90
19966;DHT22;10144;50.874;4.762;2024-02-23T01:56:47;4.70;99.90
19966;DHT22;10144;50.874;4.762;2024-02-23T01:59:16;4.70;99.90
19966;DHT22;10144;50.874;4.762;2024-02-23T02:01:48;4.80;99.90
19966;DHT22;10144;50.874;4.762;2024-02-23T02:04:14;4.70;99.90
19966;DHT22;10144;50.874;4.762;2024-02-23T02:06:44;4.60;99.90
19966;DHT22;10144;50.874;4.762;2024-02-23T02:09:13;4.70;99.90
19966;DHT22;10144;50.874;4.762;2024-02-23T02:11:51;4.70;99.90
19966;DHT22;10144;50.874;4.762;2024-02-23T02:14:20;4.70;99.90
19966;DHT22;10144;50.874;4.762;2024-02-23T02:16:49;4.80;99.90
19966;DHT22;10144;50.874;4.762;2024-02-23T02:19:14;4.80;99.90
19966;DHT22;10144;50.874;4.762;2024-02-23T02:21:46;4.80;99.90
19966;DHT22;10144;50.874;4.762;2024-02-23T02:24:12;4.90;99.90
19966;DHT22;10144;50.874;4.762;2024-02-23T02:26:38;4.90;99.90
19966;DHT22;10144;50.874;4.762;2024-02-23T02:29:04;5.00;99.90
19966;DHT22;10144;50.874;4.762;2024-02-23T02:31:33;5.00;99.90
19966;DHT22;10144;50.874;4.762;2024-02-23T02:34:03;5.10;99.90
19966;DHT22;10144;50.874;4.762;2024-02-23T02:36:30;5.10;99.90
19966;DHT22;10144;50.874;4.762;2024-02-23T02:39:02;5.10;99.90
19966;DHT22;10144;50.874;4.762;2024-02-23T02:41:29;5.30;99.90
19966;DHT22;10144;50.874;4.762;2024-02-23T02:44:03;5.30;99.90
19966;DHT22;10144;50.874;4.762;2024-02-23T02:46:32;5.50;99.90
19966;DHT22;10144;50.874;4.762;2024-02-23T02:49:04;5.40;99.90
19966;DHT22;10144;50.874;4.762;2024-02-23T02:51:33;5.30;99.90
19966;DHT22;10144;50.874;4.762;2024-02-23T02:53:59;5.30;99.90
19966;DHT22;10144;50.874;4.762;2024-02-23T02:56:31;5.40;99.90
19966;DHT22;10144;50.874;4.762;2024-02-23T02:59:00;5.40;99.90
19966;DHT22;10144;50.874;4.762;2024-02-23T03:01:28;5.50;99.90
19966;DHT22;10144;50.874;4.762;2024-02-23T03:03:54;5.50;99.90
19966;DHT22;10144;50.874;4.762;2024-02-23T03:06:20;5.50;99.90
19966;DHT22;10144;50.874;4.762;2024-02-23T03:08:48;5.50;99.90
19966;DHT22;10144;50.874;4.762;2024-02-23T03:11:22;5.40;99.90
19966;DHT22;10144;50.874;4.762;2024-02-23T03:13:49;5.50;99.90
19966;DHT22;10144;50.874;4.762;2024-02-23T03:16:18;5.40;99.90
19966;DHT22;10144;50.874;4.762;2024-02-23T03:18:46;5.40;99.90
19966;DHT22;10144;50.874;4.762;2024-02-23T03:21:15;5.50;99.90
19966;DHT22;10144;50.874;4.762;2024-02-23T03:23:43;5.60;99.90
19966;DHT22;10144;50.874;4.762;2024-02-23T03:26:10;5.50;99.90
19966;DHT22;10144;50.874;4.762;2024-02-23T03:28:36;5.60;99.90
19966;DHT22;10144;50.874;4.762;2024-02-23T03:31:08;5.50;99.90
19966;DHT22;10144;50.874;4.762;2024-02-23T03:33:34;5.60;99.90
19966;DHT22;10144;50.874;4.762;2024-02-23T03:36:05;5.80;99.90
19966;DHT22;10144;50.874;4.762;2024-02-23T03:38:32;5.70;99.90
19966;DHT22;10144;50.874;4.762;2024-02-23T03:41:05;5.70;99.90
19966;DHT22;10144;50.874;4.762;2024-02-23T03:43:37;5.60;99.90
19966;DHT22;10144;50.874;4.762;2024-02-23T03:46:06;5.70;99.90
19966;DHT22;10144;50.874;4.762;2024-02-23T03:48:35;5.80;99.90
19966;DHT22;10144;50.874;4.762;2024-02-23T03:51:08;5.70;99.90
19966;DHT22;10144;50.874;4.762;2024-02-23T03:53:37;5.50;99.90
19966;DHT22;10144;50.874;4.762;2024-02-23T03:56:04;5.60;99.90
19966;DHT22;10144;50.874;4.762;2024-02-23T03:58:36;5.60;99.90
19966;DHT22;10144;50.874;4.762;2024-02-23T04:01:08;5.60;99.90
19966;DHT22;10144;50.874;4.762;2024-02-23T04:03:39;5.70;99.90
19966;DHT22;10144;50.874;4.762;2024-02-23T04:06:08;5.70;99.90
19966;DHT22;10144;50.874;4.762;2024-02-23T04:08:37;5.60;99.90
19966;DHT22;10144;50.874;4.762;2024-02-23T04:11:06;5.60;99.90
19966;DHT22;10144;50.874;4.762;2024-02-23T04:13:44;5.60;99.90
19966;DHT22;10144;50.874;4.762;2024-02-23T04:16:11;5.70;99.90
19966;DHT22;10144;50.874;4.762;2024-02-23T04:18:40;5.60;99.90
19966;DHT22;10144;50.874;4.762;2024-02-23T04:21:09;5.70;99.90
19966;DHT22;10144;50.874;4.762;2024-02-23T04:23:36;5.70;99.90
19966;DHT22;10144;50.874;4.762;2024-02-23T04:26:04;5.70;99.90
19966;DHT22;10144;50.874;4.762;2024-02-23T04:28:33;5.70;99.90
19966;DHT22;10144;50.874;4.762;2024-02-23T04:31:02;5.80;99.90
19966;DHT22;10144;50.874;4.762;2024-02-23T04:33:29;5.60;99.90
19966;DHT22;10144;50.874;4.762;2024-02-23T04:35:58;5.60;99.90
19966;DHT22;10144;50.874;4.762;2024-02-23T04:38:24;5.70;99.90
19966;DHT22;10144;50.874;4.762;2024-02-23T04:40:49;5.60;99.90
19966;DHT22;10144;50.874;4.762;2024-02-23T04:43:18;5.70;99.90
19966;DHT22;10144;50.874;4.762;2024-02-23T04:45:47;5.80;99.90
19966;DHT22;10144;50.874;4.762;2024-02-23T04:48:16;5.80;99.90
19966;DHT22;10144;50.874;4.762;2024-02-23T04:50:48;5.70;99.90
19966;DHT22;10144;50.874;4.762;2024-02-23T04:53:16;5.80;99.90
19966;DHT22;10144;50.874;4.762;2024-02-23T04:55:48;5.70;99.90
19966;DHT22;10144;50.874;4.762;2024-02-23T04:58:17;5.80;99.90
19966;DHT22;10144;50.874;4.762;2024-02-23T05:00:49;5.90;99.90
19966;DHT22;10144;50.874;4.762;2024-02-23T05:03:17;5.90;99.90
19966;DHT22;10144;50.874;4.762;2024-02-23T05:05:44;5.90;99.90
19966;DHT22;10144;50.874;4.762;2024-02-23T05:08:10;6.00;99.90
19966;DHT22;10144;50.874;4.762;2024-02-23T05:10:36;5.90;99.90
19966;DHT22;10144;50.874;4.762;2024-02-23T05:13:04;6.00;99.90
19966;DHT22;10144;50.874;4.762;2024-02-23T05:15:33;6.00;99.90
19966;DHT22;10144;50.874;4.762;2024-02-23T05:18:02;5.90;99.90
19966;DHT22;10144;50.874;4.762;2024-02-23T05:20:34;5.90;99.90
19966;DHT22;10144;50.874;4.762;2024-02-23T05:23:00;6.00;99.90
19966;DHT22;10144;50.874;4.762;2024-02-23T05:25:29;6.00;99.90
19966;DHT22;10144;50.874;4.762;2024-02-23T05:28:01;6.10;99.90
19966;DHT22;10144;50.874;4.762;2024-02-23T05:30:28;6.00;99.90
19966;DHT22;10144;50.874;4.762;2024-02-23T05:32:57;6.10;99.90
19966;DHT22;10144;50.874;4.762;2024-02-23T05:35:29;5.90;99.90
19966;DHT22;10144;50.874;4.762;2024-02-23T05:37:56;6.10;99.90
19966;DHT22;10144;50.874;4.762;2024-02-23T05:40:25;6.00;99.90
19966;DHT22;10144;50.874;4.762;2024-02-23T05:42:51;6.10;99.90
19966;DHT22;10144;50.874;4.762;2024-02-23T05:45:23;6.20;99.90
19966;DHT22;10144;50.874;4.762;2024-02-23T05:47:48;6.20;99.90
19966;DHT22;10144;50.874;4.762;2024-02-23T05:50:18;6.10;99.90
19966;DHT22;10144;50.874;4.762;2024-02-23T05:52:56;6.10;99.90
19966;DHT22;10144;50.874;4.762;2024-02-23T05:55:24;6.10;99.90
19966;DHT22;10144;50.874;4.762;2024-02-23T05:57:53;6.00;99.90
19966;DHT22;10144;50.874;4.762;2024-02-23T06:00:20;6.00;99.90
19966;DHT22;10144;50.874;4.762;2024-02-23T06:02:52;6.10;99.90
19966;DHT22;10144;50.874;4.762;2024-02-23T06:05:21;6.00;99.90
19966;DHT22;10144;50.874;4.762;2024-02-23T06:07:50;6.00;99.90
19966;DHT22;10144;50.874;4.762;2024-02-23T06:10:21;6.00;99.90
19966;DHT22;10144;50.874;4.762;2024-02-23T06:12:48;6.10;99.90
19966;DHT22;10144;50.874;4.762;2024-02-23T06:15:20;6.00;99.90
19966;DHT22;10144;50.874;4.762;2024-02-23T06:17:49;6.10;99.90
19966;DHT22;10144;50.874;4.762;2024-02-23T06:20:20;6.10;99.90
19966;DHT22;10144;50.874;4.762;2024-02-23T06:22:46;6.10;99.90
19966;DHT22;10144;50.874;4.762;2024-02-23T06:25:17;6.10;99.90
19966;DHT22;10144;50.874;4.762;2024-02-23T06:27:44;6.10;99.90
19966;DHT22;10144;50.874;4.762;2024-02-23T06:30:13;6.10;99.90
19966;DHT22;10144;50.874;4.762;2024-02-23T06:32:42;6.10;99.90
19966;DHT22;10144;50.874;4.762;2024-02-23T06:35:10;6.10;99.90
19966;DHT22;10144;50.874;4.762;2024-02-23T06:37:37;6.10;99.90
19966;DHT22;10144;50.874;4.762;2024-02-23T06:40:03;6.10;99.90
19966;DHT22;10144;50.874;4.762;2024-02-23T06:42:29;6.20;99.90
19966;DHT22;10144;50.874;4.762;2024-02-23T06:45:01;6.10;99.90
19966;DHT22;10144;50.874;4.762;2024-02-23T06:47:27;6.10;99.90
19966;DHT22;10144;50.874;4.762;2024-02-23T06:49:55;6.10;99.90
19966;DHT22;10144;50.874;4.762;2024-02-23T06:52:24;6.10;99.90
19966;DHT22;10144;50.874;4.762;2024-02-23T06:54:57;6.20;99.90
19966;DHT22;10144;50.874;4.762;2024-02-23T06:57:25;6.10;99.90
19966;DHT22;10144;50.874;4.762;2024-02-23T06:59:58;6.10;99.90
19966;DHT22;10144;50.874;4.762;2024-02-23T07:02:25;6.20;99.90
19966;DHT22;10144;50.874;4.762;2024-02-23T07:04:52;6.20;99.90
19966;DHT22;10144;50.874;4.762;2024-02-23T07:07:20;6.30;99.90
19966;DHT22;10144;50.874;4.762;2024-02-23T07:09:48;6.30;99.90
19966;DHT22;10144;50.874;4.762;2024-02-23T07:12:21;6.30;99.90
19966;DHT22;10144;50.874;4.762;2024-02-23T07:14:49;6.40;99.90
19966;DHT22;10144;50.874;4.762;2024-02-23T07:17:21;6.40;99.90
19966;DHT22;10144;50.874;4.762;2024-02-23T07:19:49;6.40;99.90
19966;DHT22;10144;50.874;4.762;2024-02-23T07:22:21;6.50;99.90
19966;DHT22;10144;50.874;4.762;2024-02-23T07:24:47;6.40;99.90
19966;DHT22;10144;50.874;4.762;2024-02-23T07:27:20;6.40;99.90
19966;DHT22;10144;50.874;4.762;2024-02-23T07:29:49;6.50;99.90
19966;DHT22;10144;50.874;4.762;2024-02-23T07:32:21;6.50;99.90
19966;DHT22;10144;50.874;4.762;2024-02-23T07:34:46;6.40;99.90
19966;DHT22;10144;50.874;4.762;2024-02-23T07:37:15;6.40;99.90
19966;DHT22;10144;50.874;4.762;2024-02-23T07:39:42;6.50;99.90
19966;DHT22;10144;50.874;4.762;2024-02-23T07:42:08;6.50;99.90
19966;DHT22;10144;50.874;4.762;2024-02-23T07:44:49;6.40;99.90
19966;DHT22;10144;50.874;4.762;2024-02-23T07:47:14;6.40;99.90
19966;DHT22;10144;50.874;4.762;2024-02-23T07:49:42;6.30;99.90
19966;DHT22;10144;50.874;4.762;2024-02-23T07:52:09;6.50;99.90
19966;DHT22;10144;50.874;4.762;2024-02-23T07:54:48;6.60;99.90
19966;DHT22;10144;50.874;4.762;2024-02-23T07:57:16;6.70;99.90
19966;DHT22;10144;50.874;4.762;2024-02-23T07:59:42;6.80;99.90
19966;DHT22;10144;50.874;4.762;2024-02-23T08:02:08;6.80;99.90
19966;DHT22;10144;50.874;4.762;2024-02-23T08:04:39;6.60;99.90
19966;DHT22;10144;50.874;4.762;2024-02-23T08:07:08;6.70;99.90
19966;DHT22;10144;50.874;4.762;2024-02-23T08:09:40;6.70;99.90
19966;DHT22;10144;50.874;4.762;2024-02-23T08:12:11;6.80;99.90
19966;DHT22;10144;50.874;4.762;2024-02-23T08:14:45;6.80;99.90
19966;DHT22;10144;50.874;4.762;2024-02-23T08:17:12;6.80;99.90
19966;DHT22;10144;50.874;4.762;2024-02-23T08:19:38;6.90;99.90
19966;DHT22;10144;50.874;4.762;2024-02-23T08:22:04;6.80;99.90
19966;DHT22;10144;50.874;4.762;2024-02-23T08:24:33;6.90;99.90
19966;DHT22;10144;50.874;4.762;2024-02-23T08:27:00;6.90;99.90
19966;DHT22;10144;50.874;4.762;2024-02-23T08:29:29;6.90;99.90
19966;DHT22;10144;50.874;4.762;2024-02-23T08:31:55;7.00;99.90
19966;DHT22;10144;50.874;4.762;2024-02-23T08:34:21;6.80;99.90
19966;DHT22;10144;50.874;4.762;2024-02-23T08:36:49;6.50;99.90
19966;DHT22;10144;50.874;4.762;2024-02-23T08:39:22;6.20;99.90
19966;DHT22;10144;50.874;4.762;2024-02-23T08:41:52;6.00;99.90
19966;DHT22;10144;50.874;4.762;2024-02-23T08:44:18;6.00;99.90
19966;DHT22;10144;50.874;4.762;2024-02-23T08:47:02;6.20;99.90
19966;DHT22;10144;50.874;4.762;2024-02-23T08:49:29;6.20;99.90
19966;DHT22;10144;50.874;4.762;2024-02-23T08:51:56;6.20;99.90
19966;DHT22;10144;50.874;4.762;2024-02-23T08:54:25;6.20;99.90
19966;DHT22;10144;50.874;4.762;2024-02-23T08:56:54;6.10;99.90
19966;DHT22;10144;50.874;4.762;2024-02-23T08:59:22;6.00;99.90
19966;DHT22;10144;50.874;4.762;2024-02-23T09:01:48;6.00;99.90
19966;DHT22;10144;50.874;4.762;2024-02-23T09:04:13;6.10;99.90
19966;DHT22;10144;50.874;4.762;2024-02-23T09:06:42;6.50;99.90
19966;DHT22;10144;50.874;4.762;2024-02-23T09:09:08;6.80;99.90
19966;DHT22;10144;50.874;4.762;2024-02-23T09:11:36;7.20;99.90
19966;DHT22;10144;50.874;4.762;2024-02-23T09:14:05;7.30;99.90
19966;DHT22;10144;50.874;4.762;2024-02-23T09:16:34;7.10;99.90
19966;DHT22;10144;50.874;4.762;2024-02-23T09:19:00;6.80;99.90
19966;DHT22;10144;50.874;4.762;2024-02-23T09:21:29;6.70;99.90
19966;DHT22;10144;50.874;4.762;2024-02-23T09:23:55;6.60;99.90
19966;DHT22;10144;50.874;4.762;2024-02-23T09:26:26;6.50;99.90
19966;DHT22;10144;50.874;4.762;2024-02-23T09:28:55;6.60;99.90
19966;DHT22;10144;50.874;4.762;2024-02-23T09:31:24;6.70;99.90
19966;DHT22;10144;50.874;4.762;2024-02-23T09:33:52;6.70;99.90
19966;DHT22;10144;50.874;4.762;2024-02-23T09:36:24;6.60;99.90
19966;DHT22;10144;50.874;4.762;2024-02-23T09:38:53;6.60;99.90
19966;DHT22;10144;50.874;4.762;2024-02-23T09:41:23;6.60;99.90
19966;DHT22;10144;50.874;4.762;2024-02-23T09:43:49;6.70;99.90
19966;DHT22;10144;50.874;4.762;2024-02-23T09:46:21;7.00;99.90
19966;DHT22;10144;50.874;4.762;2024-02-23T09:48:50;7.00;99.90
19966;DHT22;10144;50.874;4.762;2024-02-23T09:51:23;7.10;99.90
19966;DHT22;10144;50.874;4.762;2024-02-23T09:53:55;7.20;99.90
19966;DHT22;10144;50.874;4.762;2024-02-23T09:56:27;7.00;99.90
19966;DHT22;10144;50.874;4.762;2024-02-23T09:58:58;7.10;99.90
19966;DHT22;10144;50.874;4.762;2024-02-23T10:01:30;7.70;99.90
19966;DHT22;10144;50.874;4.762;2024-02-23T10:04:05;8.00;99.90
19966;DHT22;10144;50.874;4.762;2024-02-23T10:06:32;8.10;99.90
19966;DHT22;10144;50.874;4.762;2024-02-23T10:08:57;8.50;99.90
19966;DHT22;10144;50.874;4.762;2024-02-23T10:11:26;8.90;99.90
19966;DHT22;10144;50.874;4.762;2024-02-23T10:13:52;9.50;99.90
19966;DHT22;10144;50.874;4.762;2024-02-23T10:16:23;10.00;99.90
19966;DHT22;10144;50.874;4.762;2024-02-23T10:18:52;10.00;99.90
19966;DHT22;10144;50.874;4.762;2024-02-23T10:21:18;10.70;99.90
19966;DHT22;10144;50.874;4.762;2024-02-23T10:23:47;11.20;99.90
19966;DHT22;10144;50.874;4.762;2024-02-23T10:26:17;11.10;99.90
19966;DHT22;10144;50.874;4.762;2024-02-23T10:29:01;10.70;99.90
19966;DHT22;10144;50.874;4.762;2024-02-23T10:31:35;10.30;99.90
19966;DHT22;10144;50.874;4.762;2024-02-23T10:34:09;9.50;99.90
19966;DHT22;10144;50.874;4.762;2024-02-23T10:36:42;8.80;99.90
19966;DHT22;10144;50.874;4.762;2024-02-23T10:39:09;8.90;99.90
19966;DHT22;10144;50.874;4.762;2024-02-23T10:41:46;9.00;99.90
19966;DHT22;10144;50.874;4.762;2024-02-23T10:44:16;9.50;99.90
19966;DHT22;10144;50.874;4.762;2024-02-23T10:46:42;10.20;99.90
19966;DHT22;10144;50.874;4.762;2024-02-23T10:49:16;10.80;99.90
19966;DHT22;10144;50.874;4.762;2024-02-23T10:51:48;11.20;99.90
19966;DHT22;10144;50.874;4.762;2024-02-23T10:54:15;11.70;99.90
19966;DHT22;10144;50.874;4.762;2024-02-23T10:56:49;11.60;99.90
19966;DHT22;10144;50.874;4.762;2024-02-23T10:59:15;11.20;99.90
19966;DHT22;10144;50.874;4.762;2024-02-23T11:01:51;10.90;99.90
19966;DHT22;10144;50.874;4.762;2024-02-23T11:04:29;11.10;99.90
19966;DHT22;10144;50.874;4.762;2024-02-23T11:07:03;11.20;99.90
19966;DHT22;10144;50.874;4.762;2024-02-23T11:09:36;11.50;99.90
19966;DHT22;10144;50.874;4.762;2024-02-23T11:12:05;11.30;99.90
19966;DHT22;10144;50.874;4.762;2024-02-23T11:14:38;11.60;99.90
19966;DHT22;10144;50.874;4.762;2024-02-23T11:17:17;12.30;99.90
19966;DHT22;10144;50.874;4.762;2024-02-23T11:19:50;12.50;99.90
19966;DHT22;10144;50.874;4.762;2024-02-23T11:22:27;12.00;99.90
19966;DHT22;10144;50.874;4.762;2024-02-23T11:25:08;11.60;99.90
19966;DHT22;10144;50.874;4.762;2024-02-23T11:27:38;11.50;99.90
19966;DHT22;10144;50.874;4.762;2024-02-23T11:30:09;11.30;99.90
19966;DHT22;10144;50.874;4.762;2024-02-23T11:32:41;11.30;99.90
19966;DHT22;10144;50.874;4.762;2024-02-23T11:35:25;11.20;99.90
19966;DHT22;10144;50.874;4.762;2024-02-23T11:37:57;10.90;99.90
19966;DHT22;10144;50.874;4.762;2024-02-23T11:40:35;10.60;99.90
19966;DHT22;10144;50.874;4.762;2024-02-23T11:43:03;10.20;99.90
19966;DHT22;10144;50.874;4.762;2024-02-23T11:45:30;10.00;99.90
19966;DHT22;10144;50.874;4.762;2024-02-23T11:47:56;9.90;99.90
19966;DHT22;10144;50.874;4.762;2024-02-23T11:50:27;9.60;99.90
19966;DHT22;10144;50.874;4.762;2024-02-23T11:52:53;9.60;99.90
19966;DHT22;10144;50.874;4.762;2024-02-23T11:55:22;9.30;99.90
19966;DHT22;10144;50.874;4.762;2024-02-23T11:57:50;9.20;99.90
19966;DHT22;10144;50.874;4.762;2024-02-23T12:00:23;9.20;99.90
19966;DHT22;10144;50.874;4.762;2024-02-23T12:02:49;9.30;99.90
19966;DHT22;10144;50.874;4.762;2024-02-23T12:05:17;9.20;99.90
19966;DHT22;10144;50.874;4.762;2024-02-23T12:07:43;9.20;99.90
19966;DHT22;10144;50.874;4.762;2024-02-23T12:10:09;9.20;99.90
19966;DHT22;10144;50.874;4.762;2024-02-23T12:12:42;9.30;99.90
19966;DHT22;10144;50.874;4.762;2024-02-23T12:15:14;9.20;99.90
19966;DHT22;10144;50.874;4.762;2024-02-23T12:17:49;9.00;99.90
19966;DHT22;10144;50.874;4.762;2024-02-23T12:20:16;9.00;99.90
19966;DHT22;10144;50.874;4.762;2024-02-23T12:22:44;9.00;99.90
19966;DHT22;10144;50.874;4.762;2024-02-23T12:25:12;9.00;99.90
19966;DHT22;10144;50.874;4.762;2024-02-23T12:27:41;9.10;99.90
19966;DHT22;10144;50.874;4.762;2024-02-23T12:30:14;8.90;99.90
19966;DHT22;10144;50.874;4.762;2024-02-23T12:32:43;9.20;99.90
19966;DHT22;10144;50.874;4.762;2024-02-23T12:35:14;9.90;99.90
19966;DHT22;10144;50.874;4.762;2024-02-23T12:37:43;10.20;99.90
19966;DHT22;10144;50.874;4.762;2024-02-23T12:40:15;10.00;99.90
19966;DHT22;10144;50.874;4.762;2024-02-23T12:42:44;9.70;99.90
19966;DHT22;10144;50.874;4.762;2024-02-23T12:45:09;9.70;99.90
19966;DHT22;10144;50.874;4.762;2024-02-23T12:47:41;9.90;99.90
19966;DHT22;10144;50.874;4.762;2024-02-23T12:50:07;9.80;99.90
19966;DHT22;10144;50.874;4.762;2024-02-23T12:52:39;9.60;99.90
19966;DHT22;10144;50.874;4.762;2024-02-23T12:55:05;9.70;99.90
19966;DHT22;10144;50.874;4.762;2024-02-23T12:57:32;9.50;99.90
19966;DHT22;10144;50.874;4.762;2024-02-23T13:00:05;9.40;99.90
19966;DHT22;10144;50.874;4.762;2024-02-23T13:02:30;9.60;99.90
19966;DHT22;10144;50.874;4.762;2024-02-23T13:05:02;10.40;99.90
19966;DHT22;10144;50.874;4.762;2024-02-23T13:07:28;10.70;99.90
19966;DHT22;10144;50.874;4.762;2024-02-23T13:09:57;11.40;99.90
19966;DHT22;10144;50.874;4.762;2024-02-23T13:12:22;11.60;99.90
19966;DHT22;10144;50.874;4.762;2024-02-23T13:14:52;11.90;95.20
19966;DHT22;10144;50.874;4.762;2024-02-23T13:17:21;11.80;97.60
19966;DHT22;10144;50.874;4.762;2024-02-23T13:19:49;11.30;99.90
19966;DHT22;10144;50.874;4.762;2024-02-23T13:22:16;10.90;99.90
19966;DHT22;10144;50.874;4.762;2024-02-23T13:24:44;10.70;99.90
19966;DHT22;10144;50.874;4.762;2024-02-23T13:27:13;10.70;99.90
19966;DHT22;10144;50.874;4.762;2024-02-23T13:29:39;10.40;99.90
19966;DHT22;10144;50.874;4.762;2024-02-23T13:32:05;10.40;99.90
19966;DHT22;10144;50.874;4.762;2024-02-23T13:34:34;10.50;99.90
19966;DHT22;10144;50.874;4.762;2024-02-23T13:37:03;11.00;99.10
19966;DHT22;10144;50.874;4.762;2024-02-23T13:39:29;11.30;97.80
19966;DHT22;10144;50.874;4.762;2024-02-23T13:42:01;11.20;93.30
19966;DHT22;10144;50.874;4.762;2024-02-23T13:44:30;11.00;94.60
19966;DHT22;10144;50.874;4.762;2024-02-23T13:46:58;11.00;92.90
19966;DHT22;10144;50.874;4.762;2024-02-23T13:49:27;10.80;92.10
19966;DHT22;10144;50.874;4.762;2024-02-23T13:51:54;10.30;99.90
19966;DHT22;10144;50.874;4.762;2024-02-23T13:54:22;10.10;99.90
19966;DHT22;10144;50.874;4.762;2024-02-23T13:56:49;10.00;99.90
19966;DHT22;10144;50.874;4.762;2024-02-23T13:59:14;9.90;99.90
19966;DHT22;10144;50.874;4.762;2024-02-23T14:01:40;9.90;99.90
19966;DHT22;10144;50.874;4.762;2024-02-23T14:04:09;10.00;99.90
19966;DHT22;10144;50.874;4.762;2024-02-23T14:06:37;9.90;99.90
19966;DHT22;10144;50.874;4.762;2024-02-23T14:09:06;9.90;99.90
19966;DHT22;10144;50.874;4.762;2024-02-23T14:11:35;9.90;99.90
19966;DHT22;10144;50.874;4.762;2024-02-23T14:14:02;9.80;99.90
19966;DHT22;10144;50.874;4.762;2024-02-23T14:16:30;9.80;99.90
19966;DHT22;10144;50.874;4.762;2024-02-23T14:18:58;9.80;99.90
19966;DHT22;10144;50.874;4.762;2024-02-23T14:21:30;9.80;99.90
19966;DHT22;10144;50.874;4.762;2024-02-23T14:23:58;10.00;99.90
19966;DHT22;10144;50.874;4.762;2024-02-23T14:26:27;10.10;99.90
19966;DHT22;10144;50.874;4.762;2024-02-23T14:29:02;10.10;99.90
19966;DHT22;10144;50.874;4.762;2024-02-23T14:31:28;10.20;99.90
19966;DHT22;10144;50.874;4.762;2024-02-23T14:33:57;9.90;99.90
19966;DHT22;10144;50.874;4.762;2024-02-23T14:36:23;9.90;99.90
19966;DHT22;10144;50.874;4.762;2024-02-23T14:38:55;9.80;99.90
19966;DHT22;10144;50.874;4.762;2024-02-23T14:41:23;9.50;99.90
19966;DHT22;10144;50.874;4.762;2024-02-23T14:43:50;9.60;99.90
19966;DHT22;10144;50.874;4.762;2024-02-23T14:46:17;9.50;99.90
19966;DHT22;10144;50.874;4.762;2024-02-23T14:48:44;9.50;99.90
19966;DHT22;10144;50.874;4.762;2024-02-23T14:51:19;9.40;99.90
19966;DHT22;10144;50.874;4.762;2024-02-23T14:53:48;9.40;99.90
19966;DHT22;10144;50.874;4.762;2024-02-23T14:56:17;9.50;99.90
19966;DHT22;10144;50.874;4.762;2024-02-23T14:58:42;9.70;99.90
19966;DHT22;10144;50.874;4.762;2024-02-23T15:01:08;9.80;97.90
19966;DHT22;10144;50.874;4.762;2024-02-23T15:03:38;9.80;96.10
19966;DHT22;10144;50.874;4.762;2024-02-23T15:06:07;9.80;91.90
19966;DHT22;10144;50.874;4.762;2024-02-23T15:08:36;9.80;99.90
19966;DHT22;10144;50.874;4.762;2024-02-23T15:11:04;9.80;94.70
19966;DHT22;10144;50.874;4.762;2024-02-23T15:13:41;9.80;93.70
19966;DHT22;10144;50.874;4.762;2024-02-23T15:16:07;9.70;94.80
19966;DHT22;10144;50.874;4.762;2024-02-23T15:18:35;9.60;99.20
19966;DHT22;10144;50.874;4.762;2024-02-23T15:21:01;9.90;98.40
19966;DHT22;10144;50.874;4.762;2024-02-23T15:23:28;9.90;84.90
19966;DHT22;10144;50.874;4.762;2024-02-23T15:25:57;10.00;86.30
19966;DHT22;10144;50.874;4.762;2024-02-23T15:28:23;9.80;90.90
19966;DHT22;10144;50.874;4.762;2024-02-23T15:30:50;9.70;93.80
19966;DHT22;10144;50.874;4.762;2024-02-23T15:33:22;9.60;99.90
19966;DHT22;10144;50.874;4.762;2024-02-23T15:35:51;9.50;99.90
19966;DHT22;10144;50.874;4.762;2024-02-23T15:38:19;9.20;99.90
19966;DHT22;10144;50.874;4.762;2024-02-23T15:40:44;8.90;99.90
19966;DHT22;10144;50.874;4.762;2024-02-23T15:43:10;8.80;99.90
19966;DHT22;10144;50.874;4.762;2024-02-23T15:45:35;8.60;99.90
19966;DHT22;10144;50.874;4.762;2024-02-23T15:48:01;8.60;99.90
19966;DHT22;10144;50.874;4.762;2024-02-23T15:50:27;8.50;99.90
19966;DHT22;10144;50.874;4.762;2024-02-23T15:52:54;8.40;99.90
19966;DHT22;10144;50.874;4.762;2024-02-23T15:55:21;8.40;99.90